Time;durP1;ratioP1;P1;durP2;ratioP2;P2;SDS_P1;SDS_P2;PMS_P1;PMS_P2;Temp;Humidity;BMP_temperature;BMP_pressure;BME280_temperature;BME280_humidity;BME280_pressure;Samples;Min_cycle;Max_cycle;Signal;HPM_P1;HPM_P2
2022/06/05 00:00:45;;;;;;;4.75;2.25;;;;;;;25.94;39.90;101353.69;5096896;28;20388;-44
2022/06/05 00:03:35;;;;;;;3.08;1.92;;;;;;;25.96;39.80;101358.09;5103119;28;20032;-44
2022/06/05 00:06:08;;;;;;;3.13;1.83;;;;;;;25.94;39.92;101353.69;5104495;28;20019;-44
2022/06/05 00:09:00;;;;;;;5.47;2.33;;;;;;;25.88;39.99;101358.88;5103610;28;20083;-43
2022/06/05 00:11:32;;;;;;;4.88;2.40;;;;;;;25.91;39.88;101355.38;5094498;28;20071;-46
2022/06/05 00:14:01;;;;;;;3.45;1.77;;;;;;;25.87;40.30;101351.84;5103183;28;20134;-45
2022/06/05 00:16:30;;;;;;;3.47;1.70;;;;;;;25.77;40.33;101352.63;5073049;28;20560;-48
2022/06/05 00:18:59;;;;;;;3.28;1.98;;;;;;;25.83;40.12;101346.56;5104430;28;20036;-48
2022/06/05 00:21:28;;;;;;;4.55;1.85;;;;;;;25.85;39.96;101345.69;5102956;28;20035;-46
2022/06/05 00:23:56;;;;;;;3.70;1.75;;;;;;;25.83;40.20;101355.31;5103338;28;20031;-44
2022/06/05 00:26:29;;;;;;;3.08;1.90;;;;;;;25.90;40.08;101351.91;5104779;28;20036;-48
2022/06/05 00:29:35;;;;;;;3.40;1.65;;;;;;;25.92;39.86;101347.53;5104133;28;20019;-45
2022/06/05 00:32:23;;;;;;;6.10;1.73;;;;;;;25.92;39.96;101341.38;5097763;28;20043;-46
2022/06/05 00:34:52;;;;;;;5.45;1.92;;;;;;;25.87;40.01;101329.97;5094871;28;20038;-44
2022/06/05 00:37:44;;;;;;;2.95;2.03;;;;;;;25.83;40.15;101334.28;5104571;28;20035;-44
2022/06/05 00:40:28;;;;;;;6.35;2.40;;;;;;;25.84;40.04;101333.41;5104033;28;20030;-46
2022/06/05 00:42:57;;;;;;;2.70;1.77;;;;;;;25.86;39.99;101336.94;5103921;28;20028;-45
2022/06/05 00:45:29;;;;;;;4.15;2.17;;;;;;;25.83;39.92;101333.41;5103858;28;20362;-45
2022/06/05 00:47:58;;;;;;;3.30;1.80;;;;;;;25.86;40.08;101338.72;5104241;28;20122;-44
2022/06/05 00:50:29;;;;;;;4.85;1.75;;;;;;;25.82;39.78;101340.41;5104286;28;20545;-44
2022/06/05 00:53:00;;;;;;;3.80;1.90;;;;;;;25.74;39.88;101339.44;5102849;28;20133;-44
2022/06/05 00:55:32;;;;;;;4.15;1.70;;;;;;;25.81;39.91;101341.28;5104320;28;20028;-47
2022/06/05 00:58:01;;;;;;;3.63;2.10;;;;;;;25.83;39.99;101331.66;5102905;28;20028;-47
2022/06/05 01:00:35;;;;;;;5.28;2.58;;;;;;;25.82;39.97;101334.28;5085545;28;20066;-45
2022/06/05 01:03:06;;;;;;;5.00;2.08;;;;;;;25.72;39.82;101320.16;5085967;28;20164;-45
2022/06/05 01:05:35;;;;;;;3.92;1.90;;;;;;;25.72;39.96;101317.53;5103912;28;20088;-50
2022/06/05 01:08:03;;;;;;;2.47;1.65;;;;;;;25.77;39.81;101328.97;5103701;28;20452;-48
2022/06/05 01:10:58;;;;;;;3.40;1.98;;;;;;;25.76;39.91;101332.47;5103509;28;20027;-48
2022/06/05 01:13:33;;;;;;;3.50;1.77;;;;;;;25.81;39.93;101336.03;5103754;28;20046;-46
2022/06/05 01:16:11;;;;;;;4.47;2.15;;;;;;;25.75;39.92;101331.56;5103950;28;20203;-45
2022/06/05 01:18:46;;;;;;;3.60;1.83;;;;;;;25.78;39.50;101322.88;5103547;28;20019;-45
2022/06/05 01:21:24;;;;;;;6.25;2.65;;;;;;;25.66;39.44;101301.69;5086311;28;20032;-44
2022/06/05 01:24:15;;;;;;;3.78;1.90;;;;;;;25.77;39.47;101323.72;5101894;28;20114;-44
2022/06/05 01:26:49;;;;;;;7.78;2.22;;;;;;;25.75;39.77;101326.31;5097943;28;20071;-45
2022/06/05 01:29:29;;;;;;;5.53;2.00;;;;;;;25.73;39.68;101335.94;5102144;28;20038;-44
2022/06/05 01:32:04;;;;;;;3.35;1.85;;;;;;;25.81;39.67;101335.13;5103842;28;20349;-49
2022/06/05 01:34:54;;;;;;;4.28;1.85;;;;;;;25.73;39.69;101333.28;5103866;28;20027;-47
2022/06/05 01:37:38;;;;;;;6.80;1.88;;;;;;;25.67;39.84;101325.38;5095148;28;20040;-44
2022/06/05 01:40:10;;;;;;;3.17;2.20;;;;;;;25.75;39.62;101326.31;5102404;28;20050;-47
2022/06/05 01:42:42;;;;;;;3.88;2.30;;;;;;;25.72;39.71;101326.31;5103885;28;20035;-44
2022/06/05 01:45:33;;;;;;;4.25;1.90;;;;;;;25.71;39.63;101313.13;5102426;28;20118;-49
2022/06/05 01:48:03;;;;;;;5.38;2.47;;;;;;;25.64;39.89;101320.06;5099760;28;20036;-46
2022/06/05 01:50:41;;;;;;;5.22;2.08;;;;;;;25.61;39.99;101323.56;5102025;28;20111;-47
2022/06/05 01:53:11;;;;;;;4.28;1.90;;;;;;;25.68;39.95;101331.47;5092748;28;20571;-45
2022/06/05 01:55:48;;;;;;;4.80;2.42;;;;;;;25.60;39.79;101323.50;5103842;28;20023;-45
2022/06/05 01:58:20;;;;;;;3.55;1.95;;;;;;;25.57;39.88;101326.09;5103720;28;20028;-44
2022/06/05 02:00:51;;;;;;;3.30;1.58;;;;;;;25.66;39.76;101327.94;5101933;28;20047;-44
2022/06/05 02:03:25;;;;;;;4.22;1.80;;;;;;;25.66;39.82;101322.69;5102136;28;20066;-45
2022/06/05 02:06:00;;;;;;;3.88;1.77;;;;;;;25.67;39.82;101316.59;5102011;28;20031;-45
2022/06/05 02:08:49;;;;;;;3.85;2.35;;;;;;;25.60;39.64;101315.63;5103154;28;20043;-44
2022/06/05 02:11:37;;;;;;;3.35;1.90;;;;;;;25.59;40.08;101322.66;5079277;28;20035;-46
2022/06/05 02:14:07;;;;;;;4.57;2.05;;;;;;;25.60;39.59;101319.16;5103236;28;20051;-46
2022/06/05 02:16:37;;;;;;;3.58;1.73;;;;;;;25.63;39.65;101313.94;5102961;28;20027;-45
2022/06/05 02:19:12;;;;;;;3.03;1.85;;;;;;;25.59;39.79;101316.50;5103175;28;20031;-48
2022/06/05 02:21:41;;;;;;;4.05;2.10;;;;;;;25.66;39.48;101320.06;5104680;28;20400;-48
2022/06/05 02:24:12;;;;;;;3.30;1.85;;;;;;;25.65;39.81;101327.09;5106906;28;20036;-48
2022/06/05 02:26:41;;;;;;;2.97;1.77;;;;;;;25.61;39.97;101313.03;5106426;28;20015;-45
2022/06/05 02:29:17;;;;;;;3.63;1.73;;;;;;;25.62;39.89;101320.06;5106923;28;20071;-45
2022/06/05 02:31:54;;;;;;;4.18;2.15;;;;;;;25.59;39.80;101322.66;5105360;28;20035;-48
2022/06/05 02:34:45;;;;;;;5.22;1.67;;;;;;;25.62;39.70;101330.56;5106822;28;20028;-51
2022/06/05 02:37:33;;;;;;;2.72;1.65;;;;;;;25.57;39.80;101328.72;5106547;28;20694;-45
2022/06/05 02:40:05;;;;;;;4.13;1.77;;;;;;;25.67;39.43;101334.97;5106208;28;20384;-45
2022/06/05 02:42:42;;;;;;;3.42;2.00;;;;;;;25.59;39.63;101340.13;5105202;28;20449;-45
2022/06/05 02:45:35;;;;;;;2.70;1.95;;;;;;;25.62;39.68;101334.94;5105162;28;20480;-46
2022/06/05 02:48:10;;;;;;;5.40;2.25;;;;;;;25.63;39.55;101326.19;5096639;28;20489;-47
2022/06/05 02:50:50;;;;;;;4.93;1.70;;;;;;;25.65;39.49;101334.09;5106576;28;20537;-44
2022/06/05 02:53:19;;;;;;;3.15;1.80;;;;;;;25.62;39.38;101333.19;5105140;28;20027;-46
2022/06/05 02:55:47;;;;;;;4.10;1.85;;;;;;;25.53;39.68;101325.19;5105370;28;20048;-49
2022/06/05 02:58:16;;;;;;;4.25;1.98;;;;;;;25.58;40.00;101334.00;5106409;28;20036;-44
2022/06/05 03:03:27;;;;;;;4.55;2.08;;;;;;;25.56;39.54;101341.00;5105343;28;20392;-45
2022/06/05 03:03:32;;;;;;;3.22;1.65;;;;;;;25.59;39.30;101335.78;5105965;28;20105;-44
2022/06/05 03:06:02;;;;;;;2.10;1.50;;;;;;;25.54;39.61;101342.72;5105833;28;20036;-45
2022/06/05 03:08:30;;;;;;;5.75;1.77;;;;;;;25.60;39.37;101347.16;5105495;28;20236;-46
2022/06/05 03:10:59;;;;;;;3.78;1.75;;;;;;;25.47;39.60;101331.25;5105882;28;20110;-46
2022/06/05 03:13:27;;;;;;;3.45;1.67;;;;;;;25.69;39.03;101349.91;5105955;28;20044;-46
2022/06/05 03:15:59;;;;;;;3.50;1.52;;;;;;;25.62;39.28;101348.06;5106059;28;20397;-46
2022/06/05 03:18:27;;;;;;;7.53;1.92;;;;;;;25.60;39.11;101345.44;5105712;28;20430;-47
2022/06/05 03:20:58;;;;;;;2.60;1.88;;;;;;;25.47;39.60;101346.16;5105796;28;20150;-46
2022/06/05 03:23:26;;;;;;;2.85;1.80;;;;;;;25.51;39.23;101344.44;5105992;28;20116;-46
2022/06/05 03:25:55;;;;;;;3.63;1.90;;;;;;;25.53;39.40;101348.81;5105414;28;20023;-46
2022/06/05 03:28:24;;;;;;;4.97;1.77;;;;;;;25.50;39.47;101347.91;5105662;28;20019;-46
2022/06/05 03:30:52;;;;;;;4.75;1.80;;;;;;;25.48;39.35;101340.03;5105378;27;20077;-48
2022/06/05 03:33:21;;;;;;;2.70;1.50;;;;;;;25.44;39.17;101323.31;5105532;28;20284;-44
2022/06/05 03:35:49;;;;;;;3.95;1.90;;;;;;;25.46;39.37;101344.38;5105549;28;20521;-46
2022/06/05 03:38:18;;;;;;;4.50;1.52;;;;;;;25.44;39.41;101348.72;5105683;28;20096;-44
2022/06/05 03:40:47;;;;;;;4.50;2.00;;;;;;;25.45;39.21;101350.50;5105315;28;20031;-45
2022/06/05 03:43:16;;;;;;;2.38;1.70;;;;;;;25.41;39.11;101335.50;5105639;28;20042;-47
2022/06/05 03:45:45;;;;;;;5.40;2.30;;;;;;;25.47;39.34;101343.53;5105124;28;20667;-45
2022/06/05 03:48:13;;;;;;;3.38;1.70;;;;;;;25.47;39.28;101351.41;5105251;28;20031;-51
2022/06/05 03:50:42;;;;;;;2.78;1.40;;;;;;;25.33;38.98;101328.41;5105249;28;20561;-47
2022/06/05 03:53:10;;;;;;;5.18;1.70;;;;;;;25.47;39.00;101348.78;5105179;28;20039;-51
2022/06/05 03:55:40;;;;;;;3.05;1.60;;;;;;;25.40;38.98;101358.25;5105273;28;20020;-47
2022/06/05 03:58:09;;;;;;;4.50;1.65;;;;;;;25.40;39.15;101358.25;5105171;28;20016;-51
2022/06/05 04:00:38;;;;;;;5.72;2.10;;;;;;;25.45;38.75;101363.63;5104830;28;20118;-45
2022/06/05 04:03:05;;;;;;;3.53;1.60;;;;;;;25.42;38.89;101360.97;5105060;28;20107;-45
2022/06/05 04:05:34;;;;;;;3.22;1.70;;;;;;;25.32;39.35;101358.16;5104959;28;20494;-47
2022/06/05 04:08:02;;;;;;;4.20;1.60;;;;;;;25.35;39.13;101354.72;5103450;28;20059;-47
2022/06/05 04:10:31;;;;;;;1.50;1.20;;;;;;;25.30;38.85;101352.03;5103530;28;20485;-48
2022/06/05 04:13:00;;;;;;;3.70;1.65;;;;;;;25.36;39.14;101358.19;5104468;28;20083;-47
2022/06/05 04:15:28;;;;;;;2.95;1.45;;;;;;;25.42;38.85;101368.84;5105041;28;20035;-47
2022/06/05 04:17:57;;;;;;;3.40;1.55;;;;;;;25.45;38.80;101364.50;5104471;28;20023;-45
2022/06/05 04:20:25;;;;;;;4.43;2.03;;;;;;;25.45;38.68;101368.88;5104388;28;20426;-45
2022/06/05 04:22:53;;;;;;;2.55;1.50;;;;;;;25.44;38.95;101372.38;5104506;28;20097;-46
2022/06/05 04:25:21;;;;;;;4.13;1.85;;;;;;;25.43;38.91;101367.97;5104653;28;20031;-49
2022/06/05 04:27:51;;;;;;;4.82;1.63;;;;;;;25.32;38.98;101373.91;5104731;28;20043;-51
2022/06/05 04:30:19;;;;;;;3.47;1.67;;;;;;;25.38;38.96;101380.13;5104751;28;20065;-45
2022/06/05 04:32:48;;;;;;;2.35;1.55;;;;;;;25.37;38.89;101380.97;5104326;28;20020;-46
2022/06/05 04:35:16;;;;;;;2.40;1.30;;;;;;;25.39;38.91;101379.25;5104459;28;20450;-49
2022/06/05 04:37:45;;;;;;;4.18;1.85;;;;;;;25.37;38.67;101386.22;5103886;28;20124;-47
2022/06/05 04:40:13;;;;;;;1.85;1.20;;;;;;;25.40;39.13;101387.16;5102856;28;20368;-44
2022/06/05 04:42:42;;;;;;;4.47;1.77;;;;;;;25.38;38.97;101383.66;5104054;28;20037;-45
2022/06/05 04:45:11;;;;;;;3.28;1.58;;;;;;;25.40;38.97;101395.03;5104269;28;20067;-45
2022/06/05 04:47:40;;;;;;;5.00;1.38;;;;;;;25.38;39.04;101395.88;5104403;28;20062;-45
2022/06/05 04:50:10;;;;;;;4.05;1.77;;;;;;;25.33;39.25;101395.81;5104500;28;20020;-49
2022/06/05 04:52:38;;;;;;;1.58;1.30;;;;;;;25.29;39.18;101391.38;5104053;28;20023;-48
2022/06/05 04:55:07;;;;;;;2.42;1.60;;;;;;;25.17;39.16;101385.09;5104066;28;20023;-47
2022/06/05 04:57:36;;;;;;;3.63;1.50;;;;;;;25.28;39.10;101403.63;5102558;28;20032;-46
2022/06/05 05:00:07;;;;;;;2.35;1.10;;;;;;;25.24;39.29;101401.81;5103610;28;20031;-46
2022/06/05 05:02:36;;;;;;;2.53;1.30;;;;;;;25.33;38.92;101406.31;5103923;28;20506;-51
2022/06/05 05:05:05;;;;;;;4.22;1.65;;;;;;;25.30;39.32;101404.53;5103819;28;20268;-46
2022/06/05 05:07:34;;;;;;;1.83;1.00;;;;;;;25.33;39.14;101407.19;5103896;28;20035;-48
2022/06/05 05:10:03;;;;;;;1.77;1.30;;;;;;;25.32;38.84;101407.19;5103991;28;20415;-48
2022/06/05 05:12:32;;;;;;;3.47;1.70;;;;;;;25.30;39.00;101409.78;5103805;28;20028;-48
2022/06/05 05:15:00;;;;;;;3.03;1.35;;;;;;;25.32;38.84;101413.31;5103798;28;20464;-46
2022/06/05 05:17:29;;;;;;;2.63;1.25;;;;;;;25.30;39.04;101415.06;5103819;28;20093;-45
2022/06/05 05:19:58;;;;;;;2.30;1.13;;;;;;;25.30;39.26;101417.69;5103536;28;20032;-48
2022/06/05 05:22:27;;;;;;;2.08;1.00;;;;;;;25.33;38.95;101422.94;5092762;28;20027;-44
2022/06/05 05:24:55;;;;;;;4.03;1.38;;;;;;;25.37;39.22;101415.13;5103074;28;20023;-47
2022/06/05 05:27:24;;;;;;;3.17;1.50;;;;;;;25.33;39.19;101419.44;5102302;28;20252;-46
2022/06/05 05:29:53;;;;;;;5.57;1.52;;;;;;;25.29;39.23;101417.63;5103762;28;20023;-45
2022/06/05 05:32:21;;;;;;;2.20;1.05;;;;;;;25.33;39.02;101435.22;5103923;28;20035;-50
2022/06/05 05:34:50;;;;;;;1.58;0.88;;;;;;;25.34;39.07;101434.34;5103719;28;20464;-45
2022/06/05 05:37:18;;;;;;;1.23;1.13;;;;;;;25.38;39.02;101430.00;5103096;28;20024;-45
2022/06/05 05:42:34;;;;;;;1.70;0.90;;;;;;;25.44;38.95;101428.38;5103100;28;20789;-46
2022/06/05 05:45:05;;;;;;;2.15;1.15;;;;;;;25.45;39.04;101443.28;5101965;28;20116;-47
2022/06/05 05:47:34;;;;;;;3.95;1.30;;;;;;;25.40;39.28;101430.94;5103477;28;20459;-48
2022/06/05 05:50:07;;;;;;;3.47;1.08;;;;;;;25.40;39.08;101423.91;5103165;28;20106;-47
2022/06/05 05:52:37;;;;;;;3.28;1.20;;;;;;;25.47;39.11;101430.19;5103366;28;20063;-45
2022/06/05 05:55:07;;;;;;;3.47;1.30;;;;;;;25.48;39.19;101435.47;5104532;28;20023;-46
2022/06/05 05:57:35;;;;;;;2.35;0.98;;;;;;;25.44;39.00;101438.91;5106102;28;20107;-47
2022/06/05 06:00:05;;;;;;;4.60;1.38;;;;;;;25.48;38.84;101432.84;5111562;28;20076;-48
2022/06/05 06:02:34;;;;;;;1.23;0.90;;;;;;;25.49;39.04;101431.06;5117555;28;20472;-49
2022/06/05 06:05:02;;;;;;;4.32;1.10;;;;;;;25.57;39.00;101449.56;5117383;28;20031;-46
2022/06/05 06:07:31;;;;;;;3.75;1.40;;;;;;;25.57;39.13;101444.31;5117300;28;20019;-46
2022/06/05 06:10:00;;;;;;;3.47;1.17;;;;;;;25.64;39.24;101454.06;5117060;28;20031;-49
2022/06/05 06:12:28;;;;;;;3.15;1.80;;;;;;;25.59;39.20;101448.75;5116724;28;20036;-47
2022/06/05 06:14:57;;;;;;;3.17;0.85;;;;;;;25.67;39.03;101456.75;5116599;28;20058;-48
2022/06/05 06:17:25;;;;;;;4.05;0.93;;;;;;;25.70;39.11;101455.88;5116882;28;20031;-43
2022/06/05 06:19:54;;;;;;;3.40;1.20;;;;;;;25.68;39.45;101452.34;5116690;28;20489;-45
2022/06/05 06:22:23;;;;;;;3.25;0.90;;;;;;;25.64;39.14;101448.81;5116936;28;20035;-47
2022/06/05 06:24:52;;;;;;;2.90;0.90;;;;;;;25.59;39.43;101453.09;5116715;28;20031;-49
2022/06/05 06:27:20;;;;;;;4.15;1.23;;;;;;;25.74;38.99;101457.69;5117067;28;20024;-47
2022/06/05 06:29:49;;;;;;;2.38;1.00;;;;;;;25.77;39.02;101468.25;5116715;28;20063;-47
2022/06/05 06:32:17;;;;;;;2.08;0.88;;;;;;;25.63;39.04;101452.28;5116525;28;20045;-47
2022/06/05 06:34:46;;;;;;;3.17;1.00;;;;;;;25.68;39.32;101466.38;5116746;28;20032;-45
2022/06/05 06:37:16;;;;;;;2.67;0.90;;;;;;;25.71;39.05;101455.94;5116979;28;20032;-51
2022/06/05 06:39:45;;;;;;;6.65;1.15;;;;;;;25.72;38.91;101462.03;5116402;28;20054;-49
2022/06/05 06:42:13;;;;;;;3.47;0.93;;;;;;;25.70;38.92;101464.66;5116686;28;20115;-46
2022/06/05 06:44:42;;;;;;;3.58;1.08;;;;;;;25.70;38.83;101454.16;5116634;28;20478;-46
2022/06/05 06:47:10;;;;;;;2.58;0.90;;;;;;;25.69;39.39;101468.16;5116510;27;20483;-43
2022/06/05 06:49:39;;;;;;;1.42;0.80;;;;;;;25.67;39.28;101462.00;5116394;27;20465;-45
2022/06/05 06:52:08;;;;;;;2.40;0.82;;;;;;;25.58;39.41;101446.09;5116462;28;20115;-45
2022/06/05 06:54:36;;;;;;;2.85;0.70;;;;;;;25.70;39.32;101476.91;5116379;28;20038;-48
2022/06/05 06:57:05;;;;;;;7.00;1.30;;;;;;;25.76;38.86;101472.63;5116071;28;20032;-44
2022/06/05 06:59:34;;;;;;;3.42;0.95;;;;;;;25.78;39.04;101475.28;5115538;28;20024;-49
2022/06/05 07:02:03;;;;;;;2.33;0.65;;;;;;;25.71;39.41;101476.94;5115906;28;20110;-47
2022/06/05 07:04:31;;;;;;;2.45;0.90;;;;;;;25.57;39.48;101474.13;5116002;28;20027;-52
2022/06/05 07:07:00;;;;;;;4.55;0.70;;;;;;;25.60;39.52;101481.16;5113939;28;20023;-46
2022/06/05 07:09:28;;;;;;;2.28;0.63;;;;;;;25.65;39.39;101478.59;5115629;28;20024;-50
2022/06/05 07:11:57;;;;;;;3.92;0.90;;;;;;;25.70;39.27;101484.78;5114569;28;20071;-47
2022/06/05 07:14:26;;;;;;;2.67;0.80;;;;;;;25.79;38.80;101488.44;5115694;28;20067;-46
2022/06/05 07:16:55;;;;;;;2.45;0.77;;;;;;;25.82;38.92;101490.19;5115319;28;20023;-47
2022/06/05 07:19:24;;;;;;;2.33;0.63;;;;;;;25.78;38.91;101494.53;5115677;28;20118;-46
2022/06/05 07:21:52;;;;;;;2.63;0.50;;;;;;;25.73;39.19;101496.22;5115633;28;20067;-46
2022/06/05 07:24:21;;;;;;;2.72;0.70;;;;;;;25.82;39.07;101499.84;5115441;28;20031;-44
2022/06/05 07:26:49;;;;;;;1.00;0.60;;;;;;;25.84;39.22;101503.38;5115208;28;20034;-51
2022/06/05 07:29:18;;;;;;;2.75;0.63;;;;;;;25.75;39.25;101501.50;5113959;28;20047;-46
2022/06/05 07:31:46;;;;;;;6.30;1.02;;;;;;;25.68;39.10;101497.91;5115694;28;20027;-48
2022/06/05 07:34:14;;;;;;;1.95;0.65;;;;;;;25.58;39.64;101512.66;5115567;28;20027;-49
2022/06/05 07:36:42;;;;;;;2.45;0.60;;;;;;;25.57;39.34;101510.00;5115545;28;20027;-47
2022/06/05 07:39:11;;;;;;;4.38;0.65;;;;;;;25.50;39.45;101509.03;5115460;28;20069;-47
2022/06/05 07:41:39;;;;;;;2.38;0.77;;;;;;;25.60;39.22;101510.94;5115492;28;20072;-45
2022/06/05 07:44:08;;;;;;;6.25;0.70;;;;;;;25.53;39.09;101513.47;5114315;28;20457;-45
2022/06/05 07:46:36;;;;;;;2.60;0.80;;;;;;;25.51;39.35;101520.44;5115428;28;20031;-44
2022/06/05 07:49:06;;;;;;;4.55;0.90;;;;;;;25.58;38.73;101520.53;5115432;28;20031;-45
2022/06/05 07:54:27;;;;;;;4.18;0.90;;;;;;;25.51;38.94;101516.03;5114765;28;20035;-49
2022/06/05 07:56:58;;;;;;;4.28;1.20;;;;;;;25.48;38.92;101524.78;5115323;28;20100;-45
2022/06/05 07:59:28;;;;;;;2.40;0.90;;;;;;;25.43;39.27;101521.19;5113708;28;20035;-48
2022/06/05 08:01:58;;;;;;;4.95;0.82;;;;;;;25.41;39.39;101524.63;5115072;28;20061;-45
2022/06/05 08:04:27;;;;;;;1.95;0.43;;;;;;;25.55;38.64;101523.13;5115248;28;20028;-47
2022/06/05 08:06:57;;;;;;;5.70;0.85;;;;;;;25.42;39.21;101529.91;5114831;28;20193;-47
2022/06/05 08:09:26;;;;;;;4.57;0.88;;;;;;;25.24;39.27;101519.97;5114417;28;20066;-47
2022/06/05 08:11:53;;;;;;;3.92;0.98;;;;;;;25.07;39.98;101521.44;5114993;28;20073;-48
2022/06/05 08:14:22;;;;;;;4.53;1.48;;;;;;;25.10;39.22;101511.88;5114437;28;20044;-44
2022/06/05 08:16:51;;;;;;;3.85;0.80;;;;;;;25.43;38.33;101521.19;5114757;28;20042;-45
2022/06/05 08:19:21;;;;;;;2.78;0.60;;;;;;;25.14;38.26;101516.31;5113996;28;20030;-45
2022/06/05 08:21:52;;;;;;;3.67;0.80;;;;;;;24.99;38.10;101516.91;5114596;28;20030;-51
2022/06/05 08:24:21;;;;;;;3.13;0.55;;;;;;;24.89;37.99;101515.00;5114670;28;20491;-46
2022/06/05 08:26:50;;;;;;;2.22;0.77;;;;;;;24.66;38.01;101519.81;5114480;28;20024;-45
2022/06/05 08:29:19;;;;;;;1.65;0.70;;;;;;;24.55;38.76;101517.88;5113060;28;20054;-43
2022/06/05 08:31:48;;;;;;;5.20;1.08;;;;;;;24.57;39.00;101531.88;5114567;28;20031;-43
2022/06/05 08:34:17;;;;;;;3.92;1.23;;;;;;;24.54;38.92;101528.31;5114234;28;20092;-44
2022/06/05 08:36:45;;;;;;;4.88;0.93;;;;;;;24.46;38.88;101514.19;5112576;28;20469;-46
2022/06/05 08:42:08;;;;;;;3.15;0.80;;;;;;;24.50;39.39;101523.84;5110632;28;20572;-47
2022/06/05 08:44:42;;;;;;;6.45;1.05;;;;;;;24.51;38.51;101509.88;5114211;28;20059;-46
2022/06/05 08:47:29;;;;;;;2.25;0.60;;;;;;;24.39;38.75;101523.66;5114345;28;20110;-43
2022/06/05 08:50:14;;;;;;;4.50;0.80;;;;;;;24.16;38.83;101521.44;5109836;28;20042;-45
2022/06/05 08:53:06;;;;;;;2.78;0.70;;;;;;;24.18;38.53;101525.00;5112925;28;20023;-46
2022/06/05 08:55:39;;;;;;;2.97;0.88;;;;;;;24.16;39.04;101539.78;5111378;28;20031;-44
2022/06/05 08:58:16;;;;;;;2.78;0.75;;;;;;;23.94;38.82;101536.66;5112821;28;20027;-44
2022/06/05 09:00:50;;;;;;;5.90;0.82;;;;;;;23.95;39.24;101548.91;5096207;28;20031;-44
2022/06/05 09:03:24;;;;;;;3.90;0.77;;;;;;;23.94;39.33;101556.75;5113147;28;20028;-43
2022/06/05 09:05:57;;;;;;;5.00;0.93;;;;;;;23.83;39.71;101546.91;5112806;28;20455;-43
2022/06/05 09:08:30;;;;;;;4.63;1.08;;;;;;;23.77;39.90;101551.13;5113221;28;20243;-47
2022/06/05 09:11:04;;;;;;;2.70;0.85;;;;;;;23.39;39.72;101507.47;5112388;28;20358;-43
2022/06/05 09:13:49;;;;;;;8.50;1.17;;;;;;;23.48;40.06;101551.31;5113761;28;20032;-44
2022/06/05 09:16:23;;;;;;;2.95;0.68;;;;;;;23.34;40.58;101548.34;5113230;28;20028;-43
2022/06/05 09:18:52;;;;;;;1.60;0.35;;;;;;;23.38;40.26;101562.44;5112368;28;20077;-46
2022/06/05 09:21:42;;;;;;;4.65;1.02;;;;;;;23.48;40.43;101553.94;5113612;28;20035;-44
2022/06/05 09:24:14;;;;;;;2.03;0.50;;;;;;;23.52;40.47;101554.03;5110171;28;20488;-43
2022/06/05 09:26:43;;;;;;;4.85;0.90;;;;;;;23.46;40.33;101556.53;5113657;28;20392;-43
2022/06/05 09:29:49;;;;;;;3.67;0.57;;;;;;;23.49;40.37;101550.47;5096436;28;20024;-47
2022/06/05 09:32:55;;;;;;;3.50;0.85;;;;;;;23.55;40.77;101552.34;5113261;28;20062;-43
2022/06/05 09:35:29;;;;;;;5.28;1.00;;;;;;;23.43;41.35;101548.59;5117382;28;20473;-43
2022/06/05 09:37:58;;;;;;;4.03;0.68;;;;;;;23.56;40.92;101546.25;5117423;28;20040;-43
2022/06/05 09:40:34;;;;;;;1.92;0.57;;;;;;;23.63;40.11;101550.81;5117114;28;20031;-43
2022/06/05 09:43:10;;;;;;;4.03;1.08;;;;;;;23.54;40.52;101551.47;5117887;28;20069;-43
2022/06/05 09:45:51;;;;;;;6.35;1.00;;;;;;;23.31;40.55;101556.16;5117627;28;20106;-43
2022/06/05 09:48:29;;;;;;;6.55;0.80;;;;;;;23.27;40.71;101559.53;5117586;28;20108;-43
2022/06/05 09:50:57;;;;;;;2.65;0.45;;;;;;;23.36;41.23;101554.50;5115842;28;20118;-43
2022/06/05 09:53:30;;;;;;;4.07;1.05;;;;;;;23.20;41.52;101541.03;5116288;28;20031;-47
2022/06/05 09:56:00;;;;;;;4.32;0.80;;;;;;;23.08;41.72;101563.38;5116235;28;20050;-44
2022/06/05 09:58:39;;;;;;;2.13;0.57;;;;;;;23.08;41.22;101566.00;5116063;28;20024;-44
2022/06/05 10:01:28;;;;;;;4.20;0.70;;;;;;;23.18;40.89;101566.25;5115944;28;20023;-44
2022/06/05 10:03:57;;;;;;;4.53;0.60;;;;;;;23.25;40.31;101569.06;5113626;28;20069;-43
2022/06/05 10:06:45;;;;;;;3.53;0.70;;;;;;;23.26;40.48;101576.09;5117288;28;20057;-43
2022/06/05 10:09:16;;;;;;;5.07;0.50;;;;;;;23.04;40.53;101571.16;5116995;28;20027;-46
2022/06/05 10:12:03;;;;;;;4.10;1.05;;;;;;;23.03;40.91;101586.78;5117147;28;20110;-43
2022/06/05 10:14:32;;;;;;;3.63;0.50;;;;;;;23.03;40.88;101585.06;5116611;28;20100;-44
2022/06/05 10:17:07;;;;;;;6.80;1.20;;;;;;;22.83;41.21;101586.25;5117140;28;20027;-43
2022/06/05 10:19:52;;;;;;;4.60;0.90;;;;;;;23.10;41.30;101586.13;5116850;28;20051;-47
2022/06/05 10:22:44;;;;;;;2.75;0.60;;;;;;;23.17;41.38;101593.28;5116967;27;20105;-42
2022/06/05 10:25:33;;;;;;;4.03;0.82;;;;;;;23.01;41.10;101586.75;5110511;28;20043;-42
2022/06/05 10:28:06;;;;;;;5.82;0.98;;;;;;;23.14;41.26;101582.75;5113572;28;20035;-44
2022/06/05 10:30:40;;;;;;;1.67;0.47;;;;;;;23.00;41.17;101569.28;5115868;28;20423;-46
2022/06/05 10:33:24;;;;;;;3.72;0.80;;;;;;;23.16;41.10;101582.78;5115650;28;20034;-42
2022/06/05 10:36:04;;;;;;;2.65;0.50;;;;;;;23.32;41.60;101587.59;5117491;28;20087;-43
2022/06/05 10:39:10;;;;;;;4.45;0.63;;;;;;;23.34;40.76;101583.28;5115482;28;20027;-44
2022/06/05 10:41:54;;;;;;;3.67;0.90;;;;;;;23.11;40.10;101579.13;5115904;28;20484;-45
2022/06/05 10:44:52;;;;;;;4.57;0.82;;;;;;;23.08;40.69;101577.34;5116605;28;20116;-42
2022/06/05 10:47:43;;;;;;;1.45;0.60;;;;;;;23.10;40.81;101572.13;5112512;28;20032;-43
2022/06/05 10:50:30;;;;;;;4.13;0.63;;;;;;;23.19;40.20;101578.50;5112839;28;20043;-42
2022/06/05 10:53:25;;;;;;;2.33;0.65;;;;;;;23.24;40.05;101585.63;5108085;28;20396;-43
2022/06/05 10:56:12;;;;;;;3.47;0.63;;;;;;;23.14;40.51;101582.75;5112624;28;20044;-43
2022/06/05 10:58:42;;;;;;;2.42;0.68;;;;;;;22.96;40.41;101583.13;5115094;28;20032;-42
2022/06/05 11:01:13;;;;;;;5.03;0.65;;;;;;;22.97;39.84;101569.19;5116178;28;20377;-43
2022/06/05 11:03:53;;;;;;;5.57;1.10;;;;;;;22.92;39.48;101573.41;5116164;28;20038;-48
2022/06/05 11:06:29;;;;;;;3.35;0.70;;;;;;;22.97;39.92;101574.44;5114946;28;20058;-43
2022/06/05 11:09:20;;;;;;;3.80;0.80;;;;;;;22.77;38.83;101563.44;5098131;28;20488;-43
2022/06/05 11:15:04;;;;;;;;;;;;;;;23.04;38.34;101583.31;5107412;28;20039;-46
2022/06/05 11:17:55;;;;;;;6.68;0.95;;;;;;;22.90;39.07;101580.38;5115062;28;20002;-43
2022/06/05 11:20:26;;;;;;;3.13;0.55;;;;;;;22.80;39.47;101581.84;5111398;28;20384;-42
2022/06/05 11:23:03;;;;;;;2.72;0.95;;;;;;;22.83;40.43;101545.31;5116164;28;20094;-45
2022/06/05 11:25:41;;;;;;;4.40;1.02;;;;;;;22.90;39.25;101578.63;5114749;28;20027;-46
2022/06/05 11:28:33;;;;;;;6.57;1.05;;;;;;;22.82;39.21;101584.47;5115514;28;20065;-46
2022/06/05 11:31:21;;;;;;;2.50;0.65;;;;;;;22.62;39.25;101545.56;5115510;28;20035;-43
2022/06/05 11:33:55;;;;;;;3.33;0.85;;;;;;;22.94;39.09;101579.56;5112301;28;20040;-42
2022/06/05 11:36:30;;;;;;;2.38;0.80;;;;;;;23.03;39.05;101582.47;5114484;28;20058;-43
2022/06/05 11:39:22;;;;;;;4.03;0.70;;;;;;;23.03;38.80;101582.47;5115365;28;20023;-42
2022/06/05 11:42:28;;;;;;;11.00;1.15;;;;;;;23.03;38.57;101585.06;5114368;28;20028;-46
2022/06/05 11:45:05;;;;;;;2.70;0.95;;;;;;;23.16;38.74;101573.22;5104575;28;20450;-44
2022/06/05 11:47:40;;;;;;;1.58;0.40;;;;;;;23.31;38.37;101582.34;5113785;28;20385;-46
2022/06/05 11:50:14;;;;;;;3.70;0.90;;;;;;;23.27;38.87;101585.72;5114191;28;20028;-42
2022/06/05 11:52:51;;;;;;;2.58;0.65;;;;;;;23.10;38.56;101582.59;5114187;28;20095;-44
2022/06/05 11:55:30;;;;;;;1.77;0.50;;;;;;;22.92;38.24;101595.25;5114854;28;20377;-47
2022/06/05 11:58:02;;;;;;;5.32;0.77;;;;;;;23.05;38.95;101592.94;5114029;28;20091;-46
2022/06/05 12:00:36;;;;;;;7.50;0.93;;;;;;;23.08;39.56;101586.94;5096716;28;20023;-42
2022/06/05 12:03:42;;;;;;;1.83;0.50;;;;;;;23.29;39.44;101589.25;5115165;28;20047;-43
2022/06/05 12:06:33;;;;;;;2.00;0.50;;;;;;;23.14;38.47;101600.16;5114647;28;20106;-46